sensor_id;sensor_type;location;lat;lon;timestamp;pressure;altitude;pressure_sealevel;temperature;humidity
30110;BME280;14965;50.660;13.226;2022-12-18T00:01:30;96076.13;;;-10.60;77.90
30110;BME280;14965;50.660;13.226;2022-12-18T00:03:57;96076.63;;;-10.58;78.46
30110;BME280;14965;50.660;13.226;2022-12-18T00:06:25;96077.72;;;-10.59;78.17
30110;BME280;14965;50.660;13.226;2022-12-18T00:08:55;96079.03;;;-10.62;77.97
30110;BME280;14965;50.660;13.226;2022-12-18T00:11:24;96085.47;;;-10.63;77.79
30110;BME280;14965;50.660;13.226;2022-12-18T00:13:52;96082.03;;;-10.68;77.41
30110;BME280;14965;50.660;13.226;2022-12-18T00:16:22;96093.28;;;-10.76;77.20
30110;BME280;14965;50.660;13.226;2022-12-18T00:18:50;96094.88;;;-10.81;77.01
30110;BME280;14965;50.660;13.226;2022-12-18T00:21:18;96091.94;;;-10.79;76.70
30110;BME280;14965;50.660;13.226;2022-12-18T00:23:47;96096.47;;;-10.80;77.54
30110;BME280;14965;50.660;13.226;2022-12-18T00:26:18;96093.00;;;-10.80;77.19
30110;BME280;14965;50.660;13.226;2022-12-18T00:28:46;96096.50;;;-10.85;77.10
30110;BME280;14965;50.660;13.226;2022-12-18T00:31:15;96107.19;;;-10.90;76.37
30110;BME280;14965;50.660;13.226;2022-12-18T00:33:42;96102.41;;;-10.93;76.02
30110;BME280;14965;50.660;13.226;2022-12-18T00:36:11;96093.34;;;-10.97;76.16
30110;BME280;14965;50.660;13.226;2022-12-18T00:38:39;96095.22;;;-11.02;75.61
30110;BME280;14965;50.660;13.226;2022-12-18T00:41:07;96099.50;;;-11.07;76.27
30110;BME280;14965;50.660;13.226;2022-12-18T00:43:35;96102.44;;;-11.08;76.77
30110;BME280;14965;50.660;13.226;2022-12-18T00:46:01;96105.91;;;-11.02;76.36
30110;BME280;14965;50.660;13.226;2022-12-18T00:48:28;96106.41;;;-11.00;77.49
30110;BME280;14965;50.660;13.226;2022-12-18T00:50:54;96109.63;;;-10.98;76.75
30110;BME280;14965;50.660;13.226;2022-12-18T00:53:20;96104.53;;;-11.00;77.31
30110;BME280;14965;50.660;13.226;2022-12-18T00:55:46;96108.56;;;-11.02;76.96
30110;BME280;14965;50.660;13.226;2022-12-18T00:58:15;96110.69;;;-11.05;77.48
30110;BME280;14965;50.660;13.226;2022-12-18T01:00:43;96124.34;;;-11.11;77.11
30110;BME280;14965;50.660;13.226;2022-12-18T01:03:12;96118.44;;;-11.13;77.01
30110;BME280;14965;50.660;13.226;2022-12-18T01:05:40;96115.53;;;-11.17;76.76
30110;BME280;14965;50.660;13.226;2022-12-18T01:08:06;96118.75;;;-11.20;76.91
30110;BME280;14965;50.660;13.226;2022-12-18T01:10:32;96115.25;;;-11.20;76.43
30110;BME280;14965;50.660;13.226;2022-12-18T01:12:58;96120.59;;;-11.20;76.92
30110;BME280;14965;50.660;13.226;2022-12-18T01:15:24;96107.81;;;-11.23;76.57
30110;BME280;14965;50.660;13.226;2022-12-18T01:17:53;96121.41;;;-11.20;76.72
30110;BME280;14965;50.660;13.226;2022-12-18T01:20:19;96120.06;;;-11.17;77.35
30110;BME280;14965;50.660;13.226;2022-12-18T01:22:45;96110.47;;;-11.18;77.49
30110;BME280;14965;50.660;13.226;2022-12-18T01:25:11;96103.81;;;-11.16;76.91
30110;BME280;14965;50.660;13.226;2022-12-18T01:27:37;96112.06;;;-11.17;76.64
30110;BME280;14965;50.660;13.226;2022-12-18T01:30:05;96114.22;;;-11.19;76.68
30110;BME280;14965;50.660;13.226;2022-12-18T01:32:31;96106.75;;;-11.22;76.71
30110;BME280;14965;50.660;13.226;2022-12-18T01:34:59;96118.47;;;-11.23;75.76
30110;BME280;14965;50.660;13.226;2022-12-18T01:37:25;96123.81;;;-11.29;76.40
30110;BME280;14965;50.660;13.226;2022-12-18T01:39:52;96123.81;;;-11.34;76.13
30110;BME280;14965;50.660;13.226;2022-12-18T01:42:18;96119.28;;;-11.33;76.11
30110;BME280;14965;50.660;13.226;2022-12-18T01:45:22;96127.28;;;-11.38;75.47
30110;BME280;14965;50.660;13.226;2022-12-18T01:47:52;96121.16;;;-11.39;75.59
30110;BME280;14965;50.660;13.226;2022-12-18T01:50:23;96128.09;;;-11.38;76.32
30110;BME280;14965;50.660;13.226;2022-12-18T01:52:56;96138.22;;;-11.40;75.60
30110;BME280;14965;50.660;13.226;2022-12-18T01:55:26;96137.16;;;-11.39;76.21
30110;BME280;14965;50.660;13.226;2022-12-18T01:57:57;96141.97;;;-11.36;76.43
30110;BME280;14965;50.660;13.226;2022-12-18T02:00:26;96138.22;;;-11.35;76.27
30110;BME280;14965;50.660;13.226;2022-12-18T02:02:53;96144.09;;;-11.38;76.37
30110;BME280;14965;50.660;13.226;2022-12-18T02:05:36;96140.91;;;-11.40;75.76
30110;BME280;14965;50.660;13.226;2022-12-18T02:08:13;96136.09;;;-11.43;75.94
30110;BME280;14965;50.660;13.226;2022-12-18T02:10:50;96141.16;;;-11.46;75.48
30110;BME280;14965;50.660;13.226;2022-12-18T02:13:23;96149.44;;;-11.53;75.02
30110;BME280;14965;50.660;13.226;2022-12-18T02:16:01;96141.69;;;-11.55;76.25
30110;BME280;14965;50.660;13.226;2022-12-18T02:18:35;96145.94;;;-11.54;75.48
30110;BME280;14965;50.660;13.226;2022-12-18T02:21:12;96148.88;;;-11.55;75.78
30110;BME280;14965;50.660;13.226;2022-12-18T02:23:56;96146.22;;;-11.60;76.42
30110;BME280;14965;50.660;13.226;2022-12-18T02:26:29;96157.97;;;-11.61;76.06
30110;BME280;14965;50.660;13.226;2022-12-18T02:29:04;96153.16;;;-11.64;75.76
30110;BME280;14965;50.660;13.226;2022-12-18T02:31:37;96164.34;;;-11.67;74.94
30110;BME280;14965;50.660;13.226;2022-12-18T02:34:08;96153.16;;;-11.69;74.78
30110;BME280;14965;50.660;13.226;2022-12-18T02:36:39;96160.38;;;-11.70;75.10
30110;BME280;14965;50.660;13.226;2022-12-18T02:39:10;96164.63;;;-11.74;75.40
30110;BME280;14965;50.660;13.226;2022-12-18T02:41:39;96156.88;;;-11.75;75.59
30110;BME280;14965;50.660;13.226;2022-12-18T02:44:09;96151.53;;;-11.75;76.01
30110;BME280;14965;50.660;13.226;2022-12-18T02:46:40;96157.44;;;-11.78;75.41
30110;BME280;14965;50.660;13.226;2022-12-18T02:49:21;96154.50;;;-11.82;75.17
30110;BME280;14965;50.660;13.226;2022-12-18T02:51:55;96149.72;;;-11.85;75.15
30110;BME280;14965;50.660;13.226;2022-12-18T02:54:36;96153.16;;;-11.90;75.05
30110;BME280;14965;50.660;13.226;2022-12-18T02:57:14;96144.63;;;-11.92;73.87
30110;BME280;14965;50.660;13.226;2022-12-18T02:59:51;96147.28;;;-11.97;74.04
30110;BME280;14965;50.660;13.226;2022-12-18T03:02:26;96152.34;;;-12.00;74.62
30110;BME280;14965;50.660;13.226;2022-12-18T03:05:01;96148.59;;;-12.05;73.75
30110;BME280;14965;50.660;13.226;2022-12-18T03:07:39;96146.75;;;-12.04;74.51
30110;BME280;14965;50.660;13.226;2022-12-18T03:10:13;96148.09;;;-12.07;74.62
30110;BME280;14965;50.660;13.226;2022-12-18T03:12:44;96153.66;;;-12.08;74.80
30110;BME280;14965;50.660;13.226;2022-12-18T03:15:20;96148.09;;;-12.12;74.32
30110;BME280;14965;50.660;13.226;2022-12-18T03:17:54;96146.72;;;-12.14;74.40
30110;BME280;14965;50.660;13.226;2022-12-18T03:20:29;96141.94;;;-12.12;75.07
30110;BME280;14965;50.660;13.226;2022-12-18T03:23:04;96147.25;;;-12.12;74.94
30110;BME280;14965;50.660;13.226;2022-12-18T03:25:34;96150.75;;;-12.12;74.46
30110;BME280;14965;50.660;13.226;2022-12-18T03:28:08;96148.84;;;-12.16;75.69
30110;BME280;14965;50.660;13.226;2022-12-18T03:30:40;96154.16;;;-12.16;75.41
30110;BME280;14965;50.660;13.226;2022-12-18T03:33:12;96152.84;;;-12.14;74.90
30110;BME280;14965;50.660;13.226;2022-12-18T03:35:42;96148.31;;;-12.13;75.24
30110;BME280;14965;50.660;13.226;2022-12-18T03:38:10;96147.81;;;-12.10;75.36
30110;BME280;14965;50.660;13.226;2022-12-18T03:40:48;96151.53;;;-12.11;75.83
30110;BME280;14965;50.660;13.226;2022-12-18T03:43:28;96148.59;;;-12.15;75.03
30110;BME280;14965;50.660;13.226;2022-12-18T03:46:04;96150.75;;;-12.12;75.44
30110;BME280;14965;50.660;13.226;2022-12-18T03:48:39;96158.97;;;-12.08;74.54
30110;BME280;14965;50.660;13.226;2022-12-18T03:51:16;96143.56;;;-12.06;74.66
30110;BME280;14965;50.660;13.226;2022-12-18T03:53:50;96147.00;;;-12.06;74.93
30110;BME280;14965;50.660;13.226;2022-12-18T03:56:22;96149.41;;;-12.09;75.52
30110;BME280;14965;50.660;13.226;2022-12-18T03:58:53;96157.66;;;-12.11;75.24
30110;BME280;14965;50.660;13.226;2022-12-18T04:01:29;96160.84;;;-12.14;74.39
30110;BME280;14965;50.660;13.226;2022-12-18T04:03:58;96161.91;;;-12.15;74.74
30110;BME280;14965;50.660;13.226;2022-12-18T04:06:26;96163.78;;;-12.15;74.46
30110;BME280;14965;50.660;13.226;2022-12-18T04:08:53;96165.38;;;-12.14;74.75
30110;BME280;14965;50.660;13.226;2022-12-18T04:11:19;96162.16;;;-12.16;75.52
30110;BME280;14965;50.660;13.226;2022-12-18T04:13:45;96161.13;;;-12.15;75.14
30110;BME280;14965;50.660;13.226;2022-12-18T04:16:13;96162.97;;;-12.16;75.46
30110;BME280;14965;50.660;13.226;2022-12-18T04:18:38;96165.88;;;-12.17;75.40
30110;BME280;14965;50.660;13.226;2022-12-18T04:21:05;96170.13;;;-12.21;74.39
30110;BME280;14965;50.660;13.226;2022-12-18T04:23:30;96171.75;;;-12.20;75.32
30110;BME280;14965;50.660;13.226;2022-12-18T04:25:56;96174.16;;;-12.19;75.45
30110;BME280;14965;50.660;13.226;2022-12-18T04:28:22;96176.28;;;-12.16;75.48
30110;BME280;14965;50.660;13.226;2022-12-18T04:30:49;96175.50;;;-12.11;75.60
30110;BME280;14965;50.660;13.226;2022-12-18T04:33:16;96169.63;;;-12.08;75.56
30110;BME280;14965;50.660;13.226;2022-12-18T04:35:42;96172.56;;;-12.10;75.72
30110;BME280;14965;50.660;13.226;2022-12-18T04:38:09;96186.94;;;-12.11;75.14
30110;BME280;14965;50.660;13.226;2022-12-18T04:40:36;96188.25;;;-12.13;75.90
30110;BME280;14965;50.660;13.226;2022-12-18T04:43:02;96182.16;;;-12.14;75.14
30110;BME280;14965;50.660;13.226;2022-12-18T04:45:29;96172.84;;;-12.11;75.73
30110;BME280;14965;50.660;13.226;2022-12-18T04:47:57;96182.16;;;-12.14;75.34
30110;BME280;14965;50.660;13.226;2022-12-18T04:50:24;96176.81;;;-12.19;74.73
30110;BME280;14965;50.660;13.226;2022-12-18T04:52:50;96179.75;;;-12.20;74.75
30110;BME280;14965;50.660;13.226;2022-12-18T04:55:16;96175.72;;;-12.23;74.49
30110;BME280;14965;50.660;13.226;2022-12-18T04:57:42;96177.03;;;-12.25;74.71
30110;BME280;14965;50.660;13.226;2022-12-18T05:00:10;96176.25;;;-12.26;74.32
30110;BME280;14965;50.660;13.226;2022-12-18T05:02:36;96171.19;;;-12.27;74.78
30110;BME280;14965;50.660;13.226;2022-12-18T05:05:02;96171.19;;;-12.27;73.98
30110;BME280;14965;50.660;13.226;2022-12-18T05:07:30;96175.16;;;-12.30;74.50
30110;BME280;14965;50.660;13.226;2022-12-18T05:09:56;96170.66;;;-12.30;74.74
30110;BME280;14965;50.660;13.226;2022-12-18T05:12:22;96173.59;;;-12.26;75.25
30110;BME280;14965;50.660;13.226;2022-12-18T05:14:48;96173.06;;;-12.18;75.32
30110;BME280;14965;50.660;13.226;2022-12-18T05:17:14;96179.75;;;-12.10;75.50
30110;BME280;14965;50.660;13.226;2022-12-18T05:19:39;96176.84;;;-12.03;76.52
30110;BME280;14965;50.660;13.226;2022-12-18T05:22:05;96176.59;;;-11.97;76.82
30110;BME280;14965;50.660;13.226;2022-12-18T05:24:33;96178.47;;;-11.82;76.70
30110;BME280;14965;50.660;13.226;2022-12-18T05:26:59;96180.09;;;-11.66;77.95
30110;BME280;14965;50.660;13.226;2022-12-18T05:29:25;96178.22;;;-11.55;78.25
30110;BME280;14965;50.660;13.226;2022-12-18T05:31:51;96178.47;;;-11.51;79.01
30110;BME280;14965;50.660;13.226;2022-12-18T05:34:17;96185.69;;;-11.52;78.34
30110;BME280;14965;50.660;13.226;2022-12-18T05:36:43;96179.81;;;-11.49;78.94
30110;BME280;14965;50.660;13.226;2022-12-18T05:39:09;96187.28;;;-11.25;79.73
30110;BME280;14965;50.660;13.226;2022-12-18T05:41:36;96173.88;;;-10.85;82.72
30110;BME280;14965;50.660;13.226;2022-12-18T05:44:02;96169.81;;;-10.57;82.64
30110;BME280;14965;50.660;13.226;2022-12-18T05:46:28;96182.81;;;-10.35;83.47
30110;BME280;14965;50.660;13.226;2022-12-18T05:48:54;96188.78;;;-10.09;83.99
30110;BME280;14965;50.660;13.226;2022-12-18T05:51:21;96180.72;;;-9.93;83.95
30110;BME280;14965;50.660;13.226;2022-12-18T05:53:48;96183.06;;;-9.87;84.04
30110;BME280;14965;50.660;13.226;2022-12-18T05:56:17;96188.13;;;-9.80;84.08
30110;BME280;14965;50.660;13.226;2022-12-18T05:58:45;96189.41;;;-9.72;83.86
30110;BME280;14965;50.660;13.226;2022-12-18T06:01:14;96198.44;;;-9.63;83.88
30110;BME280;14965;50.660;13.226;2022-12-18T06:03:40;96191.97;;;-9.57;83.67
30110;BME280;14965;50.660;13.226;2022-12-18T06:06:14;96187.09;;;-9.50;83.19
30110;BME280;14965;50.660;13.226;2022-12-18T06:08:40;96207.41;;;-9.44;83.22
30110;BME280;14965;50.660;13.226;2022-12-18T06:11:06;96201.78;;;-9.42;82.91
30110;BME280;14965;50.660;13.226;2022-12-18T06:13:32;96202.81;;;-9.38;83.00
30110;BME280;14965;50.660;13.226;2022-12-18T06:16:02;96204.94;;;-9.35;82.57
30110;BME280;14965;50.660;13.226;2022-12-18T06:18:28;96204.34;;;-9.32;82.79
30110;BME280;14965;50.660;13.226;2022-12-18T06:20:55;96201.47;;;-9.36;82.17
30110;BME280;14965;50.660;13.226;2022-12-18T06:23:21;96213.22;;;-9.37;82.01
30110;BME280;14965;50.660;13.226;2022-12-18T06:25:47;96220.19;;;-9.36;82.36
30110;BME280;14965;50.660;13.226;2022-12-18T06:28:13;96223.06;;;-9.32;82.58
30110;BME280;14965;50.660;13.226;2022-12-18T06:30:39;96219.06;;;-9.30;83.28
30110;BME280;14965;50.660;13.226;2022-12-18T06:33:06;96222.78;;;-9.25;83.21
30110;BME280;14965;50.660;13.226;2022-12-18T06:35:32;96231.84;;;-9.21;83.57
30110;BME280;14965;50.660;13.226;2022-12-18T06:38:00;96232.34;;;-9.14;82.97
30110;BME280;14965;50.660;13.226;2022-12-18T06:40:26;96230.41;;;-9.09;82.88
30110;BME280;14965;50.660;13.226;2022-12-18T06:42:52;96228.47;;;-9.03;83.12
30110;BME280;14965;50.660;13.226;2022-12-18T06:45:18;96228.72;;;-8.99;83.04
30110;BME280;14965;50.660;13.226;2022-12-18T06:47:44;96235.41;;;-8.97;82.99
30110;BME280;14965;50.660;13.226;2022-12-18T06:50:12;96239.66;;;-8.96;83.12
30110;BME280;14965;50.660;13.226;2022-12-18T06:52:39;96241.84;;;-8.98;83.39
30110;BME280;14965;50.660;13.226;2022-12-18T06:55:06;96240.00;;;-9.02;83.30
30110;BME280;14965;50.660;13.226;2022-12-18T06:57:32;96240.81;;;-9.02;83.32
30110;BME280;14965;50.660;13.226;2022-12-18T06:59:58;96234.06;;;-8.99;83.42
30110;BME280;14965;50.660;13.226;2022-12-18T07:02:24;96242.34;;;-8.96;83.47
30110;BME280;14965;50.660;13.226;2022-12-18T07:04:50;96237.78;;;-8.95;83.13
30110;BME280;14965;50.660;13.226;2022-12-18T07:07:18;96239.13;;;-8.93;83.15
30110;BME280;14965;50.660;13.226;2022-12-18T07:09:44;96238.81;;;-8.91;82.96
30110;BME280;14965;50.660;13.226;2022-12-18T07:12:09;96239.06;;;-8.88;83.53
30110;BME280;14965;50.660;13.226;2022-12-18T07:14:35;96238.78;;;-8.86;83.27
30110;BME280;14965;50.660;13.226;2022-12-18T07:17:01;96233.91;;;-8.79;82.64
30110;BME280;14965;50.660;13.226;2022-12-18T07:19:29;96232.59;;;-8.82;82.65
30110;BME280;14965;50.660;13.226;2022-12-18T07:21:55;96236.69;;;-8.89;82.04
30110;BME280;14965;50.660;13.226;2022-12-18T07:24:22;96226.28;;;-8.96;82.36
30110;BME280;14965;50.660;13.226;2022-12-18T07:26:48;96229.50;;;-8.99;82.26
30110;BME280;14965;50.660;13.226;2022-12-18T07:29:14;96235.91;;;-8.95;82.47
30110;BME280;14965;50.660;13.226;2022-12-18T07:31:41;96241.78;;;-8.93;82.73
30110;BME280;14965;50.660;13.226;2022-12-18T07:34:10;96238.03;;;-8.92;82.45
30110;BME280;14965;50.660;13.226;2022-12-18T07:36:36;96243.63;;;-8.88;82.59
30110;BME280;14965;50.660;13.226;2022-12-18T07:39:02;96237.72;;;-8.85;82.95
30110;BME280;14965;50.660;13.226;2022-12-18T07:41:29;96241.44;;;-8.81;83.02
30110;BME280;14965;50.660;13.226;2022-12-18T07:43:55;96247.22;;;-8.74;83.01
30110;BME280;14965;50.660;13.226;2022-12-18T07:46:22;96247.72;;;-8.67;83.34
30110;BME280;14965;50.660;13.226;2022-12-18T07:48:47;96252.16;;;-8.57;83.63
30110;BME280;14965;50.660;13.226;2022-12-18T07:51:13;96252.63;;;-8.50;83.51
30110;BME280;14965;50.660;13.226;2022-12-18T07:53:40;96253.91;;;-8.42;83.47
30110;BME280;14965;50.660;13.226;2022-12-18T07:56:10;96256.97;;;-8.30;83.64
30110;BME280;14965;50.660;13.226;2022-12-18T07:58:38;96266.44;;;-8.14;83.57
30110;BME280;14965;50.660;13.226;2022-12-18T08:01:05;96261.59;;;-8.12;83.32
30110;BME280;14965;50.660;13.226;2022-12-18T08:03:32;96265.53;;;-8.04;83.04
30110;BME280;14965;50.660;13.226;2022-12-18T08:06:00;96262.78;;;-7.99;82.74
30110;BME280;14965;50.660;13.226;2022-12-18T08:08:26;96268.03;;;-7.89;82.86
30110;BME280;14965;50.660;13.226;2022-12-18T08:10:52;96262.53;;;-7.79;82.60
30110;BME280;14965;50.660;13.226;2022-12-18T08:13:18;96259.00;;;-7.74;82.35
30110;BME280;14965;50.660;13.226;2022-12-18T08:15:45;96261.34;;;-7.67;82.32
30110;BME280;14965;50.660;13.226;2022-12-18T08:18:11;96260.16;;;-7.61;82.20
30110;BME280;14965;50.660;13.226;2022-12-18T08:20:37;96260.31;;;-7.53;82.09
30110;BME280;14965;50.660;13.226;2022-12-18T08:23:03;96261.88;;;-7.46;81.78
30110;BME280;14965;50.660;13.226;2022-12-18T08:25:29;96258.22;;;-7.37;81.58
30110;BME280;14965;50.660;13.226;2022-12-18T08:27:55;96260.56;;;-7.30;81.68
30110;BME280;14965;50.660;13.226;2022-12-18T08:30:21;96261.81;;;-7.22;81.85
30110;BME280;14965;50.660;13.226;2022-12-18T08:32:51;96261.72;;;-7.17;81.31
30110;BME280;14965;50.660;13.226;2022-12-18T08:35:17;96271.28;;;-7.11;81.31
30110;BME280;14965;50.660;13.226;2022-12-18T08:37:43;96268.56;;;-7.06;80.51
30110;BME280;14965;50.660;13.226;2022-12-18T08:40:10;96264.84;;;-7.10;80.19
30110;BME280;14965;50.660;13.226;2022-12-18T08:42:36;96268.81;;;-7.08;80.21
30110;BME280;14965;50.660;13.226;2022-12-18T08:45:03;96270.34;;;-7.02;80.47
30110;BME280;14965;50.660;13.226;2022-12-18T08:47:29;96286.38;;;-6.96;80.50
30110;BME280;14965;50.660;13.226;2022-12-18T08:49:56;96276.09;;;-6.89;80.10
30110;BME280;14965;50.660;13.226;2022-12-18T08:52:22;96277.28;;;-6.82;79.70
30110;BME280;14965;50.660;13.226;2022-12-18T08:54:48;96279.59;;;-6.75;79.84
30110;BME280;14965;50.660;13.226;2022-12-18T08:57:14;96283.78;;;-6.69;79.75
30110;BME280;14965;50.660;13.226;2022-12-18T08:59:40;96282.63;;;-6.63;79.48
30110;BME280;14965;50.660;13.226;2022-12-18T09:02:08;96279.63;;;-6.61;79.34
30110;BME280;14965;50.660;13.226;2022-12-18T09:04:35;96285.44;;;-6.54;79.14
30110;BME280;14965;50.660;13.226;2022-12-18T09:07:03;96286.66;;;-6.46;79.44
30110;BME280;14965;50.660;13.226;2022-12-18T09:09:29;96287.38;;;-6.41;79.12
30110;BME280;14965;50.660;13.226;2022-12-18T09:11:55;96293.47;;;-6.35;79.01
30110;BME280;14965;50.660;13.226;2022-12-18T09:14:20;96298.53;;;-6.34;78.76
30110;BME280;14965;50.660;13.226;2022-12-18T09:16:46;96299.13;;;-6.23;78.73
30110;BME280;14965;50.660;13.226;2022-12-18T09:19:12;96295.28;;;-6.17;78.33
30110;BME280;14965;50.660;13.226;2022-12-18T09:21:39;96291.13;;;-6.09;78.56
30110;BME280;14965;50.660;13.226;2022-12-18T09:24:11;96298.09;;;-6.08;78.04
30110;BME280;14965;50.660;13.226;2022-12-18T09:26:38;96298.50;;;-6.01;78.04
30110;BME280;14965;50.660;13.226;2022-12-18T09:29:04;96306.34;;;-5.91;78.12
30110;BME280;14965;50.660;13.226;2022-12-18T09:31:30;96309.66;;;-5.80;77.61
30110;BME280;14965;50.660;13.226;2022-12-18T09:33:56;96308.16;;;-5.72;77.16
30110;BME280;14965;50.660;13.226;2022-12-18T09:36:22;96312.81;;;-5.64;76.39
30110;BME280;14965;50.660;13.226;2022-12-18T09:38:48;96313.41;;;-5.54;76.25
30110;BME280;14965;50.660;13.226;2022-12-18T09:41:41;96297.06;;;-5.43;75.86
30110;BME280;14965;50.660;13.226;2022-12-18T09:44:22;96287.19;;;-5.34;75.42
30110;BME280;14965;50.660;13.226;2022-12-18T09:47:23;96278.88;;;-5.24;75.02
30110;BME280;14965;50.660;13.226;2022-12-18T09:49:54;96271.31;;;-5.22;74.03
30110;BME280;14965;50.660;13.226;2022-12-18T09:52:26;96272.19;;;-5.13;73.94
30110;BME280;14965;50.660;13.226;2022-12-18T09:55:01;96264.97;;;-5.04;74.09
30110;BME280;14965;50.660;13.226;2022-12-18T09:57:33;96259.25;;;-5.02;73.44
30110;BME280;14965;50.660;13.226;2022-12-18T10:00:15;96255.06;;;-4.94;73.06
30110;BME280;14965;50.660;13.226;2022-12-18T10:02:41;96251.63;;;-4.86;72.89
30110;BME280;14965;50.660;13.226;2022-12-18T10:05:12;96242.81;;;-4.78;72.65
30110;BME280;14965;50.660;13.226;2022-12-18T10:07:53;96246.81;;;-4.76;72.66
30110;BME280;14965;50.660;13.226;2022-12-18T10:10:36;96248.72;;;-4.76;72.77
30110;BME280;14965;50.660;13.226;2022-12-18T10:13:17;96234.91;;;-4.74;72.28
30110;BME280;14965;50.660;13.226;2022-12-18T10:16:09;96226.22;;;-4.71;72.09
30110;BME280;14965;50.660;13.226;2022-12-18T10:19:01;96219.22;;;-4.72;71.96
30110;BME280;14965;50.660;13.226;2022-12-18T10:21:37;96213.81;;;-4.72;71.39
30110;BME280;14965;50.660;13.226;2022-12-18T10:24:19;96219.06;;;-4.76;71.44
30110;BME280;14965;50.660;13.226;2022-12-18T10:26:51;96216.84;;;-4.74;71.26
30110;BME280;14965;50.660;13.226;2022-12-18T10:29:19;96219.59;;;-4.65;70.75
30110;BME280;14965;50.660;13.226;2022-12-18T10:31:45;96218.06;;;-4.58;70.17
30110;BME280;14965;50.660;13.226;2022-12-18T10:34:14;96215.53;;;-4.54;69.90
30110;BME280;14965;50.660;13.226;2022-12-18T10:36:41;96211.09;;;-4.59;70.15
30110;BME280;14965;50.660;13.226;2022-12-18T10:39:18;96217.78;;;-4.47;70.02
30110;BME280;14965;50.660;13.226;2022-12-18T10:41:45;96217.97;;;-4.44;68.93
30110;BME280;14965;50.660;13.226;2022-12-18T10:44:16;96216.88;;;-4.43;69.52
30110;BME280;14965;50.660;13.226;2022-12-18T10:46:45;96211.38;;;-4.29;69.58
30110;BME280;14965;50.660;13.226;2022-12-18T10:49:34;96211.22;;;-4.33;68.84
30110;BME280;14965;50.660;13.226;2022-12-18T10:52:11;96218.38;;;-4.28;69.11
30110;BME280;14965;50.660;13.226;2022-12-18T10:54:40;96216.31;;;-4.22;68.88
30110;BME280;14965;50.660;13.226;2022-12-18T10:57:20;96210.06;;;-4.09;68.17
30110;BME280;14965;50.660;13.226;2022-12-18T10:59:56;96220.56;;;-3.99;68.46
30110;BME280;14965;50.660;13.226;2022-12-18T11:02:35;96220.72;;;-3.95;67.20
30110;BME280;14965;50.660;13.226;2022-12-18T11:05:03;96221.09;;;-3.88;67.21
30110;BME280;14965;50.660;13.226;2022-12-18T11:07:50;96223.94;;;-3.85;66.75
30110;BME280;14965;50.660;13.226;2022-12-18T11:10:19;96231.41;;;-3.82;66.31
30110;BME280;14965;50.660;13.226;2022-12-18T11:12:45;96227.16;;;-3.74;65.91
30110;BME280;14965;50.660;13.226;2022-12-18T11:15:18;96216.03;;;-3.64;66.19
30110;BME280;14965;50.660;13.226;2022-12-18T11:17:48;96218.28;;;-3.57;65.45
30110;BME280;14965;50.660;13.226;2022-12-18T11:20:27;96218.13;;;-3.52;64.42
30110;BME280;14965;50.660;13.226;2022-12-18T11:22:58;96207.19;;;-3.47;64.56
30110;BME280;14965;50.660;13.226;2022-12-18T11:25:26;96199.41;;;-3.48;63.36
30110;BME280;14965;50.660;13.226;2022-12-18T11:27:55;96196.53;;;-3.43;63.52
30110;BME280;14965;50.660;13.226;2022-12-18T11:30:25;96197.66;;;-3.36;64.09
30110;BME280;14965;50.660;13.226;2022-12-18T11:33:05;96194.34;;;-3.33;63.80
30110;BME280;14965;50.660;13.226;2022-12-18T11:35:42;96203.72;;;-3.30;63.23
30110;BME280;14965;50.660;13.226;2022-12-18T11:38:21;96198.16;;;-3.34;63.50
30110;BME280;14965;50.660;13.226;2022-12-18T11:40:56;96195.59;;;-3.47;62.98
30110;BME280;14965;50.660;13.226;2022-12-18T11:43:29;96194.63;;;-3.60;62.56
30110;BME280;14965;50.660;13.226;2022-12-18T11:46:04;96205.41;;;-3.69;64.13
30110;BME280;14965;50.660;13.226;2022-12-18T11:48:37;96207.31;;;-3.69;64.46
30110;BME280;14965;50.660;13.226;2022-12-18T11:51:14;96213.47;;;-3.78;64.17
30110;BME280;14965;50.660;13.226;2022-12-18T11:53:45;96212.03;;;-3.84;64.65
30110;BME280;14965;50.660;13.226;2022-12-18T11:56:29;96228.03;;;-3.96;64.60
30110;BME280;14965;50.660;13.226;2022-12-18T11:59:08;96231.31;;;-4.08;65.18
30110;BME280;14965;50.660;13.226;2022-12-18T12:01:43;96249.84;;;-4.15;65.31
30110;BME280;14965;50.660;13.226;2022-12-18T12:04:52;96247.09;;;-4.23;66.16
30110;BME280;14965;50.660;13.226;2022-12-18T12:07:37;96248.25;;;-4.16;66.18
30110;BME280;14965;50.660;13.226;2022-12-18T12:10:20;96247.16;;;-4.15;66.59
30110;BME280;14965;50.660;13.226;2022-12-18T12:13:02;96256.03;;;-4.14;66.48
30110;BME280;14965;50.660;13.226;2022-12-18T12:15:42;96239.81;;;-4.23;66.66
30110;BME280;14965;50.660;13.226;2022-12-18T12:18:28;96251.09;;;-4.21;67.09
30110;BME280;14965;50.660;13.226;2022-12-18T12:21:08;96243.19;;;-4.17;67.39
30110;BME280;14965;50.660;13.226;2022-12-18T12:23:47;96239.22;;;-4.11;67.07
30110;BME280;14965;50.660;13.226;2022-12-18T12:26:27;96243.47;;;-4.19;67.09
30110;BME280;14965;50.660;13.226;2022-12-18T12:29:10;96232.69;;;-4.19;67.58
30110;BME280;14965;50.660;13.226;2022-12-18T12:31:59;96238.09;;;-4.19;67.16
30110;BME280;14965;50.660;13.226;2022-12-18T12:34:39;96244.59;;;-4.20;67.34
30110;BME280;14965;50.660;13.226;2022-12-18T12:37:26;96244.16;;;-4.13;67.81
30110;BME280;14965;50.660;13.226;2022-12-18T12:39:59;96236.38;;;-4.06;67.41
30110;BME280;14965;50.660;13.226;2022-12-18T12:42:34;96237.66;;;-4.12;67.61
30110;BME280;14965;50.660;13.226;2022-12-18T12:45:06;96235.56;;;-4.15;68.25
30110;BME280;14965;50.660;13.226;2022-12-18T12:47:43;96236.31;;;-4.23;68.11
30110;BME280;14965;50.660;13.226;2022-12-18T12:50:17;96227.09;;;-4.22;67.58
30110;BME280;14965;50.660;13.226;2022-12-18T12:52:50;96229.47;;;-4.30;67.22
30110;BME280;14965;50.660;13.226;2022-12-18T12:55:21;96225.16;;;-4.31;68.23
30110;BME280;14965;50.660;13.226;2022-12-18T12:57:58;96216.59;;;-4.33;69.11
30110;BME280;14965;50.660;13.226;2022-12-18T13:00:31;96222.34;;;-4.26;68.76
30110;BME280;14965;50.660;13.226;2022-12-18T13:03:12;96209.97;;;-4.27;68.36